createdAt,value
2022-11-16T00:00:44.686Z,970.81
2022-11-16T00:01:44.690Z,970.81
2022-11-16T00:02:44.640Z,970.80
2022-11-16T00:03:44.636Z,970.80
2022-11-16T00:04:44.622Z,970.80
2022-11-16T00:05:44.642Z,970.79
2022-11-16T00:06:44.603Z,970.77
2022-11-16T00:07:44.595Z,970.74
2022-11-16T00:08:44.583Z,970.70
2022-11-16T00:09:44.597Z,970.66
2022-11-16T00:10:44.560Z,970.63
2022-11-16T00:11:44.549Z,970.62
2022-11-16T00:12:44.533Z,970.60
2022-11-16T00:13:44.531Z,970.57
2022-11-16T00:14:44.545Z,970.54
2022-11-16T00:15:44.516Z,970.51
2022-11-16T00:16:44.497Z,970.49
2022-11-16T00:17:44.484Z,970.45
2022-11-16T00:18:44.476Z,970.44
2022-11-16T00:19:44.502Z,970.42
2022-11-16T00:20:44.456Z,970.43
2022-11-16T00:21:44.455Z,970.43
2022-11-16T00:22:44.441Z,970.41
2022-11-16T00:23:44.422Z,970.39
2022-11-16T00:24:44.421Z,970.36
2022-11-16T00:25:44.427Z,970.35
2022-11-16T00:26:44.398Z,970.32
2022-11-16T00:27:44.379Z,970.31
2022-11-16T00:28:44.393Z,970.30
2022-11-16T00:29:44.358Z,970.30
2022-11-16T00:30:44.349Z,970.29
2022-11-16T00:31:44.359Z,970.29
2022-11-16T00:32:44.335Z,970.29
2022-11-16T00:33:44.341Z,970.30
2022-11-16T00:34:44.308Z,970.30
2022-11-16T00:35:44.296Z,970.30
2022-11-16T00:36:44.406Z,970.30
2022-11-16T00:37:44.312Z,970.30
2022-11-16T00:38:44.293Z,970.31
2022-11-16T00:39:44.259Z,970.33
2022-11-16T00:40:44.249Z,970.34
2022-11-16T00:41:44.248Z,970.37
2022-11-16T00:42:44.250Z,970.40
2022-11-16T00:43:44.223Z,970.42
2022-11-16T00:44:44.205Z,970.43
2022-11-16T00:45:44.194Z,970.40
2022-11-16T00:46:44.212Z,970.39
2022-11-16T00:47:44.206Z,970.37
2022-11-16T00:48:44.168Z,970.35
2022-11-16T00:49:44.150Z,970.33
2022-11-16T00:50:44.147Z,970.35
2022-11-16T00:51:44.136Z,970.36
2022-11-16T00:52:44.126Z,970.39
2022-11-16T00:53:44.143Z,970.41
2022-11-16T00:54:44.145Z,970.43
2022-11-16T00:55:44.100Z,970.43
2022-11-16T00:56:44.077Z,970.42
2022-11-16T00:57:50.548Z,970.38
2022-11-16T00:58:44.078Z,970.35
2022-11-16T00:59:44.045Z,970.35
2022-11-16T01:00:44.061Z,970.35
2022-11-16T01:01:44.068Z,970.36
2022-11-16T01:02:44.031Z,970.37
2022-11-16T01:03:44.040Z,970.37
2022-11-16T01:04:44.024Z,970.38
2022-11-16T01:05:44.015Z,970.39
2022-11-16T01:06:43.998Z,970.42
2022-11-16T01:07:43.979Z,970.43
2022-11-16T01:08:44.000Z,970.45
2022-11-16T01:09:43.959Z,970.47
2022-11-16T01:10:43.937Z,970.48
2022-11-16T01:11:43.929Z,970.49
2022-11-16T01:12:43.914Z,970.51
2022-11-16T01:13:43.895Z,970.52
2022-11-16T01:14:43.890Z,970.51
2022-11-16T01:15:43.903Z,970.50
2022-11-16T01:16:43.875Z,970.48
2022-11-16T01:17:43.866Z,970.49
2022-11-16T01:18:43.851Z,970.50
2022-11-16T01:19:43.833Z,970.52
2022-11-16T01:20:43.849Z,970.53
2022-11-16T01:21:43.828Z,970.53
2022-11-16T01:22:43.813Z,970.53
2022-11-16T01:23:43.820Z,970.54
2022-11-16T01:24:43.793Z,970.55
2022-11-16T01:25:43.770Z,970.56
2022-11-16T01:26:43.765Z,970.57
2022-11-16T01:27:43.783Z,970.56
2022-11-16T01:28:43.747Z,970.56
2022-11-16T01:29:43.753Z,970.55
2022-11-16T01:30:43.753Z,970.54
2022-11-16T01:31:43.722Z,970.54
2022-11-16T01:32:43.705Z,970.54
2022-11-16T01:33:43.697Z,970.53
2022-11-16T01:34:43.685Z,970.53
2022-11-16T01:35:43.667Z,970.52
2022-11-16T01:36:43.710Z,970.50
2022-11-16T01:37:43.653Z,970.49
2022-11-16T01:38:43.676Z,970.49
2022-11-16T01:39:43.627Z,970.48
2022-11-16T01:40:43.621Z,970.46
2022-11-16T01:41:43.630Z,970.45
2022-11-16T01:42:43.638Z,970.43
2022-11-16T01:43:43.581Z,970.40
2022-11-16T01:44:43.574Z,970.39
2022-11-16T01:45:43.587Z,970.38
2022-11-16T01:46:43.550Z,970.38
2022-11-16T01:47:43.553Z,970.36
2022-11-16T01:48:43.617Z,970.35
2022-11-16T01:49:43.548Z,970.34
2022-11-16T01:50:43.510Z,970.35
2022-11-16T01:51:43.515Z,970.35
2022-11-16T01:52:43.497Z,970.36
2022-11-16T01:53:43.516Z,970.36
2022-11-16T01:54:43.536Z,970.35
2022-11-16T01:55:43.483Z,970.35
2022-11-16T01:56:43.445Z,970.33
2022-11-16T01:57:43.442Z,970.31
2022-11-16T01:58:43.436Z,970.30
2022-11-16T01:59:43.410Z,970.29
2022-11-16T02:00:43.493Z,970.29
2022-11-16T02:01:43.431Z,970.28
2022-11-16T02:02:43.390Z,970.28
2022-11-16T02:03:43.370Z,970.27
2022-11-16T02:04:43.387Z,970.27
2022-11-16T02:05:43.361Z,970.27
2022-11-16T02:06:43.378Z,970.27
2022-11-16T02:07:43.355Z,970.28
2022-11-16T02:08:43.328Z,970.30
2022-11-16T02:09:43.311Z,970.30
2022-11-16T02:10:43.301Z,970.30
2022-11-16T02:11:43.284Z,970.30
2022-11-16T02:12:43.310Z,970.30
2022-11-16T02:13:43.297Z,970.31
2022-11-16T02:14:43.256Z,970.31
2022-11-16T02:15:43.248Z,970.31
2022-11-16T02:16:43.232Z,970.30
2022-11-16T02:17:43.249Z,970.28
2022-11-16T02:18:43.247Z,970.28
2022-11-16T02:19:43.210Z,970.27
2022-11-16T02:20:43.195Z,970.27
2022-11-16T02:21:43.196Z,970.26
2022-11-16T02:22:43.173Z,970.26
2022-11-16T02:23:43.177Z,970.26
2022-11-16T02:24:43.179Z,970.26
2022-11-16T02:25:43.141Z,970.26
2022-11-16T02:26:43.157Z,970.26
2022-11-16T02:27:43.150Z,970.24
2022-11-16T02:28:43.108Z,970.23
2022-11-16T02:29:43.139Z,970.22
2022-11-16T02:30:43.120Z,970.21
2022-11-16T02:31:43.072Z,970.20
2022-11-16T02:32:43.070Z,970.20
2022-11-16T02:33:43.053Z,970.19
2022-11-16T02:34:43.090Z,970.19
2022-11-16T02:35:43.046Z,970.19
2022-11-16T02:36:43.070Z,970.19
2022-11-16T02:37:43.048Z,970.20
2022-11-16T02:38:43.003Z,970.20
2022-11-16T02:39:43.006Z,970.20
2022-11-16T02:40:42.981Z,970.20
2022-11-16T02:41:42.978Z,970.19
2022-11-16T02:42:43.023Z,970.18
2022-11-16T02:43:42.965Z,970.17
2022-11-16T02:44:42.947Z,970.16
2022-11-16T02:45:42.928Z,970.15
2022-11-16T02:46:42.922Z,970.13
2022-11-16T02:47:42.929Z,970.12
2022-11-16T02:48:42.923Z,970.11
2022-11-16T02:49:42.884Z,970.11
2022-11-16T02:50:42.876Z,970.10
2022-11-16T02:51:42.913Z,970.10
2022-11-16T02:52:42.859Z,970.10
2022-11-16T02:53:42.864Z,970.09
2022-11-16T02:54:42.855Z,970.09
2022-11-16T02:55:42.826Z,970.09
2022-11-16T02:56:42.842Z,970.09
2022-11-16T02:57:42.821Z,970.09
2022-11-16T02:58:42.811Z,970.10
2022-11-16T02:59:42.805Z,970.09
2022-11-16T03:00:42.808Z,970.10
2022-11-16T03:01:42.762Z,970.10
2022-11-16T03:02:42.770Z,970.10
2022-11-16T03:03:42.741Z,970.10
2022-11-16T03:04:42.755Z,970.09
2022-11-16T03:05:42.751Z,970.08
2022-11-16T03:06:42.718Z,970.08
2022-11-16T03:07:42.703Z,970.06
2022-11-16T03:08:42.687Z,970.05
2022-11-16T03:09:42.671Z,970.05
2022-11-16T03:10:42.691Z,970.04
2022-11-16T03:11:42.685Z,970.05
2022-11-16T03:12:42.648Z,970.05
2022-11-16T03:13:42.654Z,970.07
2022-11-16T03:14:42.628Z,970.07
2022-11-16T03:15:42.615Z,970.08
2022-11-16T03:16:42.601Z,970.09
2022-11-16T03:17:42.623Z,970.09
2022-11-16T03:18:42.591Z,970.09
2022-11-16T03:19:42.574Z,970.11
2022-11-16T03:20:42.566Z,970.13
2022-11-16T03:21:42.558Z,970.15
2022-11-16T03:22:42.566Z,970.16
2022-11-16T03:23:42.541Z,970.20
2022-11-16T03:24:42.529Z,970.23
2022-11-16T03:25:42.516Z,970.26
2022-11-16T03:26:42.504Z,970.27
2022-11-16T03:27:42.518Z,970.29
2022-11-16T03:28:42.475Z,970.30
2022-11-16T03:29:42.463Z,970.28
2022-11-16T03:30:42.459Z,970.28
2022-11-16T03:31:42.445Z,970.27
2022-11-16T03:32:42.443Z,970.25
2022-11-16T03:33:42.450Z,970.24
2022-11-16T03:34:42.414Z,970.23
2022-11-16T03:35:42.402Z,970.22
2022-11-16T03:36:42.404Z,970.21
2022-11-16T03:37:42.381Z,970.19
2022-11-16T03:38:42.409Z,970.17
2022-11-16T03:39:42.363Z,970.15
2022-11-16T03:40:42.350Z,970.14
2022-11-16T03:41:42.365Z,970.15
2022-11-16T03:42:42.344Z,970.19
2022-11-16T03:43:42.341Z,970.24
2022-11-16T03:44:42.353Z,970.27
2022-11-16T03:45:42.324Z,970.30
2022-11-16T03:46:42.292Z,970.33
2022-11-16T03:47:42.273Z,970.35
2022-11-16T03:48:42.310Z,970.39
2022-11-16T03:49:42.284Z,970.41
2022-11-16T03:50:42.252Z,970.42
2022-11-16T03:51:42.269Z,970.42
2022-11-16T03:52:42.237Z,970.43
2022-11-16T03:53:42.217Z,970.44
2022-11-16T03:54:42.207Z,970.42
2022-11-16T03:55:46.999Z,970.37
2022-11-16T03:56:42.212Z,970.34
2022-11-16T03:57:42.168Z,970.33
2022-11-16T03:58:42.174Z,970.33
2022-11-16T03:59:42.146Z,970.34
2022-11-16T04:00:42.206Z,970.35
2022-11-16T04:01:44.896Z,970.36
2022-11-16T04:02:42.135Z,970.37
2022-11-16T04:03:42.109Z,970.38
2022-11-16T04:04:42.177Z,970.39
2022-11-16T04:05:42.093Z,970.39
2022-11-16T04:06:42.100Z,970.41
2022-11-16T04:07:42.074Z,970.42
2022-11-16T04:08:42.057Z,970.43
2022-11-16T04:09:42.054Z,970.44
2022-11-16T04:10:42.038Z,970.44
2022-11-16T04:11:42.062Z,970.44
2022-11-16T04:12:42.012Z,970.43
2022-11-16T04:13:42.010Z,970.43
2022-11-16T04:14:42.027Z,970.43
2022-11-16T04:15:42.000Z,970.41
2022-11-16T04:16:42.004Z,970.42
2022-11-16T04:17:41.964Z,970.40
2022-11-16T04:18:41.949Z,970.41
2022-11-16T04:19:41.951Z,970.42
2022-11-16T04:20:41.937Z,970.42
2022-11-16T04:21:41.915Z,970.42
2022-11-16T04:22:41.931Z,970.44
2022-11-16T04:23:41.913Z,970.46
2022-11-16T04:24:41.891Z,970.45
2022-11-16T04:25:41.878Z,970.45
2022-11-16T04:26:41.884Z,970.44
2022-11-16T04:27:41.901Z,970.43
2022-11-16T04:28:41.844Z,970.43
2022-11-16T04:29:41.835Z,970.44
2022-11-16T04:30:41.825Z,970.44
2022-11-16T04:31:41.818Z,970.42
2022-11-16T04:32:41.816Z,970.39
2022-11-16T04:33:41.823Z,970.36
2022-11-16T04:34:41.790Z,970.33
2022-11-16T04:35:41.780Z,970.31
2022-11-16T04:36:41.774Z,970.28
2022-11-16T04:37:41.762Z,970.27
2022-11-16T04:38:41.779Z,970.25
2022-11-16T04:39:41.734Z,970.24
2022-11-16T04:40:41.727Z,970.23
2022-11-16T04:41:41.791Z,970.25
2022-11-16T04:42:41.716Z,970.26
2022-11-16T04:43:41.699Z,970.26
2022-11-16T04:44:41.713Z,970.27
2022-11-16T04:45:41.680Z,970.26
2022-11-16T04:46:41.660Z,970.28
2022-11-16T04:47:41.652Z,970.26
2022-11-16T04:48:41.636Z,970.24
2022-11-16T04:49:41.672Z,970.23
2022-11-16T04:50:41.662Z,970.23
2022-11-16T04:51:41.607Z,970.25
2022-11-16T04:52:41.590Z,970.25
2022-11-16T04:53:41.596Z,970.24
2022-11-16T04:54:41.567Z,970.24
2022-11-16T04:55:41.586Z,970.21
2022-11-16T04:56:41.597Z,970.17
2022-11-16T04:57:41.542Z,970.13
2022-11-16T04:58:41.526Z,970.11
2022-11-16T04:59:41.534Z,970.12
2022-11-16T05:00:41.539Z,970.10
2022-11-16T05:01:41.587Z,970.10
2022-11-16T05:02:41.498Z,970.09
2022-11-16T05:03:41.482Z,970.11
2022-11-16T05:04:41.485Z,970.10
2022-11-16T05:05:41.491Z,970.11
2022-11-16T05:06:41.446Z,970.11
2022-11-16T05:07:41.453Z,970.13
2022-11-16T05:08:41.468Z,970.13
2022-11-16T05:09:41.422Z,970.13
2022-11-16T05:10:41.437Z,970.11
2022-11-16T05:11:41.427Z,970.09
2022-11-16T05:12:41.411Z,970.07
2022-11-16T05:13:41.410Z,970.05
2022-11-16T05:14:41.377Z,970.05
2022-11-16T05:15:41.413Z,970.02
2022-11-16T05:16:41.388Z,969.99
2022-11-16T05:17:41.349Z,969.97
2022-11-16T05:18:41.322Z,969.98
2022-11-16T05:19:41.312Z,970.00
2022-11-16T05:20:41.320Z,970.01
2022-11-16T05:21:41.303Z,969.99
2022-11-16T05:22:41.297Z,970.00
2022-11-16T05:23:41.273Z,970.01
2022-11-16T05:24:41.255Z,969.98
2022-11-16T05:25:41.248Z,969.94
2022-11-16T05:26:41.266Z,969.91
2022-11-16T05:27:41.239Z,969.90
2022-11-16T05:28:41.264Z,969.88
2022-11-16T05:29:41.211Z,969.88
2022-11-16T05:30:41.203Z,969.91
2022-11-16T05:31:41.191Z,969.90
2022-11-16T05:32:41.193Z,969.89
2022-11-16T05:33:41.164Z,969.88
2022-11-16T05:34:41.184Z,969.88
2022-11-16T05:35:41.149Z,969.90
2022-11-16T05:36:41.129Z,969.86
2022-11-16T05:37:41.124Z,969.87
2022-11-16T05:38:41.134Z,969.90
2022-11-16T05:39:41.136Z,969.88
2022-11-16T05:40:41.093Z,969.87
2022-11-16T05:41:41.111Z,969.87
2022-11-16T05:42:41.069Z,969.87
2022-11-16T05:43:41.098Z,969.87
2022-11-16T05:44:41.088Z,969.88
2022-11-16T05:45:41.063Z,969.87
2022-11-16T05:46:41.038Z,969.88
2022-11-16T05:47:41.021Z,969.87
2022-11-16T05:48:41.054Z,969.90
2022-11-16T05:49:41.012Z,969.92
2022-11-16T05:50:43.070Z,969.91
2022-11-16T05:51:41.009Z,969.91
2022-11-16T05:52:40.982Z,969.91
2022-11-16T05:53:40.958Z,969.93
2022-11-16T05:54:41.006Z,969.94
2022-11-16T05:55:40.938Z,969.93
2022-11-16T05:56:40.954Z,969.94
2022-11-16T05:57:40.935Z,969.94
2022-11-16T05:58:40.905Z,969.93
2022-11-16T05:59:41.013Z,969.93
2022-11-16T06:00:40.883Z,969.93
2022-11-16T06:01:40.883Z,969.92
2022-11-16T06:02:40.892Z,969.90
2022-11-16T06:03:40.875Z,969.90
2022-11-16T06:04:40.871Z,969.89
2022-11-16T06:05:40.964Z,969.87
2022-11-16T06:06:40.819Z,969.85
2022-11-16T06:07:40.817Z,969.83
2022-11-16T06:08:40.807Z,969.82
2022-11-16T06:09:40.770Z,969.80
2022-11-16T06:10:40.780Z,969.79
2022-11-16T06:11:40.738Z,969.76
2022-11-16T06:12:40.720Z,969.74
2022-11-16T06:13:40.740Z,969.74
2022-11-16T06:14:40.770Z,969.75
2022-11-16T06:15:40.765Z,969.76
2022-11-16T06:16:40.674Z,969.75
2022-11-16T06:17:40.673Z,969.76
2022-11-16T06:18:40.652Z,969.75
2022-11-16T06:19:40.640Z,969.77
2022-11-16T06:20:40.641Z,969.77
2022-11-16T06:21:40.615Z,969.78
2022-11-16T06:22:40.630Z,969.78
2022-11-16T06:23:40.597Z,969.79
2022-11-16T06:24:40.597Z,969.79
2022-11-16T06:25:40.606Z,969.80
2022-11-16T06:26:40.605Z,969.81
2022-11-16T06:27:40.551Z,969.82
2022-11-16T06:28:40.535Z,969.82
2022-11-16T06:29:40.532Z,969.82
2022-11-16T06:30:40.546Z,969.83
2022-11-16T06:31:40.509Z,969.85
2022-11-16T06:32:40.530Z,969.86
2022-11-16T06:33:40.525Z,969.85
2022-11-16T06:34:40.477Z,969.84
2022-11-16T06:35:40.470Z,969.82
2022-11-16T06:36:40.472Z,969.82
2022-11-16T06:37:40.459Z,969.81
2022-11-16T06:38:40.441Z,969.81
2022-11-16T06:39:40.457Z,969.80
2022-11-16T06:40:40.437Z,969.80
2022-11-16T06:41:41.704Z,969.79
2022-11-16T06:42:40.389Z,969.78
2022-11-16T06:43:40.404Z,969.77
2022-11-16T06:44:40.408Z,969.79
2022-11-16T06:45:40.365Z,969.80
2022-11-16T06:46:40.350Z,969.81
2022-11-16T06:47:40.345Z,969.82
2022-11-16T06:48:40.360Z,969.82
2022-11-16T06:49:40.325Z,969.82
2022-11-16T06:50:40.318Z,969.84
2022-11-16T06:51:40.315Z,969.84
2022-11-16T06:52:40.289Z,969.84
2022-11-16T06:53:40.294Z,969.83
2022-11-16T06:54:40.314Z,969.84
2022-11-16T06:55:40.263Z,969.84
2022-11-16T06:56:40.245Z,969.84
2022-11-16T06:57:40.277Z,969.86
2022-11-16T06:58:46.738Z,969.87
2022-11-16T06:59:40.212Z,969.86
2022-11-16T07:00:40.223Z,969.87
2022-11-16T07:01:40.258Z,969.89
2022-11-16T07:02:40.201Z,969.90
2022-11-16T07:03:40.171Z,969.91
2022-11-16T07:04:40.162Z,969.90
2022-11-16T07:05:40.173Z,969.91
2022-11-16T07:06:40.154Z,969.92
2022-11-16T07:07:40.175Z,969.92
2022-11-16T07:08:40.118Z,969.92
2022-11-16T07:09:40.110Z,969.92
2022-11-16T07:10:40.096Z,969.92
2022-11-16T07:11:40.126Z,969.93
2022-11-16T07:12:40.076Z,969.93
2022-11-16T07:13:40.078Z,969.94
2022-11-16T07:14:40.055Z,969.95
2022-11-16T07:15:40.061Z,969.96
2022-11-16T07:16:40.129Z,969.96
2022-11-16T07:17:40.053Z,969.97
2022-11-16T07:18:40.013Z,970.00
2022-11-16T07:19:40.004Z,970.02
2022-11-16T07:20:40.005Z,970.03
2022-11-16T07:21:39.989Z,970.05
2022-11-16T07:22:39.968Z,970.06
2022-11-16T07:23:40.011Z,970.09
2022-11-16T07:24:40.014Z,970.15
2022-11-16T07:25:39.963Z,970.22
2022-11-16T07:26:39.985Z,970.25
2022-11-16T07:27:39.919Z,970.24
2022-11-16T07:28:44.910Z,970.23
2022-11-16T07:29:39.907Z,970.23
2022-11-16T07:30:39.886Z,970.24
2022-11-16T07:31:39.903Z,970.24
2022-11-16T07:32:39.909Z,970.24
2022-11-16T07:33:39.880Z,970.23
2022-11-16T07:34:39.870Z,970.22
2022-11-16T07:35:39.871Z,970.24
2022-11-16T07:36:39.830Z,970.26
2022-11-16T07:37:39.819Z,970.23
2022-11-16T07:38:39.831Z,970.25
2022-11-16T07:39:39.818Z,970.24
2022-11-16T07:40:39.780Z,970.25
2022-11-16T07:41:39.773Z,970.25
2022-11-16T07:42:39.764Z,970.27
2022-11-16T07:43:39.758Z,970.32
2022-11-16T07:44:39.772Z,970.36
2022-11-16T07:45:39.737Z,970.35
2022-11-16T07:46:48.193Z,970.37
2022-11-16T07:47:39.719Z,970.39
2022-11-16T07:48:39.697Z,970.40
2022-11-16T07:49:39.715Z,970.40
2022-11-16T07:50:39.707Z,970.40
2022-11-16T07:51:39.674Z,970.41
2022-11-16T07:52:39.654Z,970.43
2022-11-16T07:53:39.649Z,970.46
2022-11-16T07:54:39.651Z,970.47
2022-11-16T07:55:39.633Z,970.48
2022-11-16T07:56:39.617Z,970.47
2022-11-16T07:57:39.647Z,970.45
2022-11-16T07:58:39.599Z,970.45
2022-11-16T07:59:39.609Z,970.42
2022-11-16T08:00:39.577Z,970.40
2022-11-16T08:01:39.655Z,970.37
2022-11-16T08:02:39.552Z,970.38
2022-11-16T08:03:39.546Z,970.38
2022-11-16T08:04:39.531Z,970.39
2022-11-16T08:05:39.547Z,970.39
2022-11-16T08:06:39.532Z,970.39
2022-11-16T08:07:39.607Z,970.41
2022-11-16T08:08:39.531Z,970.41
2022-11-16T08:09:39.617Z,970.43
2022-11-16T08:10:39.467Z,970.44
2022-11-16T08:11:39.463Z,970.46
2022-11-16T08:12:39.449Z,970.46
2022-11-16T08:13:39.461Z,970.45
2022-11-16T08:14:39.447Z,970.44
2022-11-16T08:15:39.420Z,970.41
2022-11-16T08:16:39.434Z,970.39
2022-11-16T08:17:39.401Z,970.38
2022-11-16T08:18:39.391Z,970.38
2022-11-16T08:19:39.385Z,970.38
2022-11-16T08:20:39.367Z,970.37
2022-11-16T08:21:39.388Z,970.36
2022-11-16T08:22:39.349Z,970.36
2022-11-16T08:23:39.338Z,970.38
2022-11-16T08:24:39.325Z,970.39
2022-11-16T08:25:39.318Z,970.40
2022-11-16T08:26:39.304Z,970.41
2022-11-16T08:27:39.326Z,970.40
2022-11-16T08:28:39.290Z,970.41
2022-11-16T08:29:39.277Z,970.41
2022-11-16T08:30:39.264Z,970.42
2022-11-16T08:31:39.257Z,970.42
2022-11-16T08:32:39.239Z,970.41
2022-11-16T08:33:39.265Z,970.41
2022-11-16T08:34:39.269Z,970.41
2022-11-16T08:35:39.215Z,970.44
2022-11-16T08:36:39.198Z,970.43
2022-11-16T08:37:39.202Z,970.41
2022-11-16T08:38:39.178Z,970.42
2022-11-16T08:39:39.170Z,970.42
2022-11-16T08:40:39.180Z,970.43
2022-11-16T08:41:39.153Z,970.41
2022-11-16T08:42:43.515Z,970.40
2022-11-16T08:43:39.130Z,970.41
2022-11-16T08:44:39.118Z,970.43
2022-11-16T08:45:39.107Z,970.45
2022-11-16T08:46:39.125Z,970.43
2022-11-16T08:47:39.094Z,970.43
2022-11-16T08:48:39.082Z,970.41
2022-11-16T08:49:39.062Z,970.42
2022-11-16T08:51:09.858Z,970.40
2022-11-16T08:51:39.048Z,970.41
2022-11-16T08:52:39.066Z,970.41
2022-11-16T08:53:39.025Z,970.43
2022-11-16T08:54:39.016Z,970.45
2022-11-16T08:55:39.003Z,970.45
2022-11-16T08:56:38.998Z,970.45
2022-11-16T08:57:38.984Z,970.43
2022-11-16T08:58:39.003Z,970.42
2022-11-16T08:59:38.971Z,970.41
2022-11-16T09:00:38.950Z,970.41
2022-11-16T09:01:39.019Z,970.40
2022-11-16T09:02:38.975Z,970.43
2022-11-16T09:03:38.930Z,970.43
2022-11-16T09:04:38.914Z,970.47
2022-11-16T09:05:38.899Z,970.47
2022-11-16T09:06:38.888Z,970.47
2022-11-16T09:07:38.919Z,970.47
2022-11-16T09:08:38.894Z,970.48
2022-11-16T09:09:38.890Z,970.49
2022-11-16T09:10:38.845Z,970.49
2022-11-16T09:11:38.845Z,970.49
2022-11-16T09:12:38.825Z,970.50
2022-11-16T09:13:38.823Z,970.53
2022-11-16T09:14:38.829Z,970.54
2022-11-16T09:15:38.792Z,970.56
2022-11-16T09:16:38.854Z,970.55
2022-11-16T09:17:38.788Z,970.56
2022-11-16T09:18:38.761Z,970.57
2022-11-16T09:19:38.780Z,970.57
2022-11-16T09:20:38.749Z,970.56
2022-11-16T09:21:38.731Z,970.57
2022-11-16T09:22:38.722Z,970.57
2022-11-16T09:23:38.718Z,970.58
2022-11-16T09:24:38.700Z,970.57
2022-11-16T09:25:38.714Z,970.57
2022-11-16T09:26:38.713Z,970.58
2022-11-16T09:27:38.670Z,970.58
2022-11-16T09:28:38.664Z,970.59
2022-11-16T09:29:38.654Z,970.59
2022-11-16T09:30:38.644Z,970.59
2022-11-16T09:31:38.629Z,970.57
2022-11-16T09:32:38.644Z,970.57
2022-11-16T09:33:38.604Z,970.57
2022-11-16T09:34:38.603Z,970.58
2022-11-16T09:35:38.588Z,970.59
2022-11-16T09:36:38.578Z,970.60
2022-11-16T09:37:38.588Z,970.60
2022-11-16T09:38:55.785Z,970.58
2022-11-16T09:39:38.550Z,970.58
2022-11-16T09:40:38.536Z,970.57
2022-11-16T09:41:38.523Z,970.57
2022-11-16T09:42:38.546Z,970.58
2022-11-16T09:43:44.022Z,970.59
2022-11-16T09:44:38.511Z,970.61
2022-11-16T09:45:38.483Z,970.61
2022-11-16T09:46:38.475Z,970.60
2022-11-16T09:47:38.464Z,970.61
2022-11-16T09:48:38.492Z,970.61
2022-11-16T09:49:38.456Z,970.61
2022-11-16T09:50:38.433Z,970.61
2022-11-16T09:51:38.421Z,970.61
2022-11-16T09:52:38.414Z,970.63
2022-11-16T09:53:38.802Z,970.64
2022-11-16T09:54:38.412Z,970.64
2022-11-16T09:55:38.379Z,970.67
2022-11-16T09:56:38.374Z,970.70
2022-11-16T09:57:38.364Z,970.71
2022-11-16T09:58:38.619Z,970.70
2022-11-16T09:59:38.336Z,970.71
2022-11-16T10:00:38.385Z,970.72
2022-11-16T10:01:38.313Z,970.71
2022-11-16T10:02:38.307Z,970.69
2022-11-16T10:03:38.290Z,970.70
2022-11-16T10:04:38.310Z,970.71
2022-11-16T10:05:38.271Z,970.72
2022-11-16T10:06:38.289Z,970.73
2022-11-16T10:07:38.286Z,970.73
2022-11-16T10:08:38.247Z,970.73
2022-11-16T10:09:38.261Z,970.75
2022-11-16T10:10:38.225Z,970.78
2022-11-16T10:11:38.210Z,970.79
2022-11-16T10:12:38.212Z,970.78
2022-11-16T10:13:38.210Z,970.78
2022-11-16T10:14:38.184Z,970.78
2022-11-16T10:15:38.189Z,970.79
2022-11-16T10:16:38.186Z,970.78
2022-11-16T10:17:38.151Z,970.77
2022-11-16T10:18:38.143Z,970.75
2022-11-16T10:19:38.155Z,970.73
2022-11-16T10:20:38.120Z,970.73
2022-11-16T10:21:38.108Z,970.72
2022-11-16T10:22:38.123Z,970.70
2022-11-16T10:23:38.086Z,970.71
2022-11-16T10:24:38.116Z,970.72
2022-11-16T10:25:38.066Z,970.71
2022-11-16T10:26:38.057Z,970.72
2022-11-16T10:27:38.071Z,970.71
2022-11-16T10:28:38.059Z,970.70
2022-11-16T10:29:38.024Z,970.70
2022-11-16T10:30:38.015Z,970.69
2022-11-16T10:31:38.003Z,970.67
2022-11-16T10:32:38.003Z,970.67
2022-11-16T10:33:38.099Z,970.69
2022-11-16T10:34:37.990Z,970.69
2022-11-16T10:35:37.964Z,970.70
2022-11-16T10:36:37.957Z,970.70
2022-11-16T10:37:37.966Z,970.70
2022-11-16T10:38:37.939Z,970.69
2022-11-16T10:39:37.925Z,970.68
2022-11-16T10:40:37.938Z,970.67
2022-11-16T10:41:37.898Z,970.66
2022-11-16T10:42:37.890Z,970.66
2022-11-16T10:43:37.875Z,970.65
2022-11-16T10:44:37.898Z,970.64
2022-11-16T10:45:37.853Z,970.62
2022-11-16T10:46:37.865Z,970.61
2022-11-16T10:47:37.834Z,970.59
2022-11-16T10:48:37.827Z,970.57
2022-11-16T10:49:37.813Z,970.55
2022-11-16T10:50:37.808Z,970.54
2022-11-16T10:51:37.811Z,970.56
2022-11-16T10:52:37.784Z,970.58
2022-11-16T10:53:37.975Z,970.59
2022-11-16T10:54:42.887Z,970.60
2022-11-16T10:55:37.776Z,970.58
2022-11-16T10:56:37.763Z,970.58
2022-11-16T10:57:37.734Z,970.55
2022-11-16T10:58:37.720Z,970.53
2022-11-16T10:59:37.734Z,970.51
2022-11-16T11:00:37.804Z,970.50
2022-11-16T11:01:37.690Z,970.49
2022-11-16T11:02:37.675Z,970.47
2022-11-16T11:03:37.841Z,970.43
2022-11-16T11:04:37.655Z,970.41
2022-11-16T11:05:37.648Z,970.39
2022-11-16T11:06:37.668Z,970.37
2022-11-16T11:07:37.696Z,970.36
2022-11-16T11:08:37.612Z,970.34
2022-11-16T11:09:37.598Z,970.34
2022-11-16T11:10:37.595Z,970.34
2022-11-16T11:11:37.592Z,970.34
2022-11-16T11:12:37.590Z,970.32
2022-11-16T11:13:37.557Z,970.30
2022-11-16T11:14:37.548Z,970.30
2022-11-16T11:15:37.534Z,970.31
2022-11-16T11:16:37.530Z,970.33
2022-11-16T11:17:37.532Z,970.34
2022-11-16T11:18:37.507Z,970.34
2022-11-16T11:19:37.491Z,970.32
2022-11-16T11:20:41.718Z,970.31
2022-11-16T11:21:37.478Z,970.31
2022-11-16T11:22:37.484Z,970.29
2022-11-16T11:23:37.453Z,970.28
2022-11-16T11:24:44.584Z,970.28
2022-11-16T11:25:37.433Z,970.29
2022-11-16T11:26:37.589Z,970.30
2022-11-16T11:27:37.429Z,970.31
2022-11-16T11:28:37.414Z,970.31
2022-11-16T11:29:37.413Z,970.31
2022-11-16T11:30:37.395Z,970.32
2022-11-16T11:31:37.372Z,970.33
2022-11-16T11:32:37.370Z,970.32
2022-11-16T11:33:37.751Z,970.32
2022-11-16T11:34:37.342Z,970.31
2022-11-16T11:35:37.323Z,970.30
2022-11-16T11:36:37.338Z,970.30
2022-11-16T11:37:37.304Z,970.30
2022-11-16T11:38:37.315Z,970.29
2022-11-16T11:39:37.324Z,970.28
2022-11-16T11:40:37.303Z,970.27
2022-11-16T11:41:37.274Z,970.25
2022-11-16T11:42:37.252Z,970.23
2022-11-16T11:43:37.477Z,970.22
2022-11-16T11:44:37.230Z,970.21
2022-11-16T11:45:37.218Z,970.20
2022-11-16T11:47:11.012Z,970.19
2022-11-16T11:48:36.189Z,970.18
2022-11-16T11:49:37.177Z,970.17
2022-11-16T11:50:37.172Z,970.16
2022-11-16T11:51:37.181Z,970.16
2022-11-16T11:52:37.145Z,970.16
2022-11-16T11:53:37.495Z,970.16
2022-11-16T11:54:41.690Z,970.15
2022-11-16T11:55:37.117Z,970.14
2022-11-16T11:56:37.124Z,970.11
2022-11-16T11:57:37.091Z,970.11
2022-11-16T11:58:37.123Z,970.10
2022-11-16T11:59:37.068Z,970.08
2022-11-16T12:00:37.060Z,970.07
2022-11-16T12:01:37.053Z,970.08
2022-11-16T12:02:37.063Z,970.09
2022-11-16T12:03:37.253Z,970.11
2022-11-16T12:04:37.020Z,970.14
2022-11-16T12:05:37.023Z,970.14
2022-11-16T12:06:42.627Z,970.12
2022-11-16T12:07:37.081Z,970.11
2022-11-16T12:08:36.977Z,970.11
2022-11-16T12:09:36.986Z,970.10
2022-11-16T12:10:36.989Z,970.08
2022-11-16T12:11:36.940Z,970.07
2022-11-16T12:12:36.935Z,970.06
2022-11-16T12:13:37.318Z,970.06
2022-11-16T12:14:36.918Z,970.07
2022-11-16T12:15:36.898Z,970.07
2022-11-16T12:16:36.918Z,970.06
2022-11-16T12:17:36.879Z,970.05
2022-11-16T12:18:36.869Z,970.04
2022-11-16T12:19:36.878Z,970.03
2022-11-16T12:20:36.847Z,970.01
2022-11-16T12:21:36.833Z,970.03
2022-11-16T12:22:36.827Z,970.05
2022-11-16T12:23:37.109Z,970.04
2022-11-16T12:24:36.852Z,970.03
2022-11-16T12:25:36.828Z,970.01
2022-11-16T12:26:36.786Z,969.98
2022-11-16T12:27:36.783Z,969.97
2022-11-16T12:28:36.806Z,969.96
2022-11-16T12:29:36.752Z,969.94